Terminal Aerodrome Forecast
Issued by NWS

Home | Current Version | Previous Version | Graphics & Text | Print | Product List | Glossary On
Versions: 1 2 3 4 5 6 7 8 9 10 11 12 13 14 15 16 17 18 19 20 21 22 23 24
000
FTUS43 KBIS 211725
TAFJMS
TAF
KJMS 211725Z 2118/2218 27013KT P6SM SCT150 BKN200
     FM212100 24007KT P6SM BKN090
     FM220500 27007KT P6SM BKN100
     FM220800 29007KT P6SM BKN020
     FM220900 29006KT P6SM BKN015
     FM221100 33008KT P6SM -RASN BKN008
     FM221300 34010KT P6SM -RASN BKN003=

USA.gov is the U.S. government's official web portal to all federal, state and local government web resources and services.